Aviation Digital Data Service (ADDS)

Output produced by METARs form (1905 UTC 20 April 2014)
found at http://aviationweather.gov/adds/metars/
 
KJXN 201740Z 2018/2118 19010KT P6SM BKN250 
     FM211600 23010KT P6SM OVC040